Time;durP1;ratioP1;P1;durP2;ratioP2;P2;SDS_P1;SDS_P2;PMS_P1;PMS_P2;Temp;Humidity;BMP_temperature;BMP_pressure;BME280_temperature;BME280_humidity;BME280_pressure;Samples;Min_cycle;Max_cycle;Signal;HPM_P1;HPM_P2
2023/05/04 00:00:33;;;;;;;8.80;4.68;;;10.70;99.90;;;;;;5072184;28;20472;-54
2023/05/04 00:02:58;;;;;;;6.93;2.55;;;10.70;99.90;;;;;;5071990;28;20031;-56
2023/05/04 00:05:24;;;;;;;4.50;2.63;;;10.70;99.90;;;;;;5072064;28;20040;-51
2023/05/04 00:07:50;;;;;;;7.15;2.97;;;10.70;99.90;;;;;;5072087;28;20025;-52
2023/05/04 00:10:16;;;;;;;5.97;2.47;;;10.60;99.90;;;;;;5072124;28;20112;-52
2023/05/04 00:12:42;;;;;;;7.13;2.83;;;10.60;99.90;;;;;;5072210;28;20044;-53
2023/05/04 00:15:08;;;;;;;3.55;2.75;;;10.60;99.90;;;;;;5072269;28;20028;-51
2023/05/04 00:17:33;;;;;;;3.50;3.03;;;10.60;99.90;;;;;;5053884;28;20079;-55
2023/05/04 00:19:59;;;;;;;5.95;3.08;;;10.50;99.90;;;;;;5071721;28;20032;-50
2023/05/04 00:22:24;;;;;;;4.88;2.72;;;10.50;99.90;;;;;;5071932;28;20105;-52
2023/05/04 00:24:50;;;;;;;9.55;3.35;;;10.50;99.90;;;;;;5071933;28;20126;-49
2023/05/04 00:27:15;;;;;;;4.63;2.85;;;10.40;99.90;;;;;;5071792;28;20044;-53
2023/05/04 00:29:41;;;;;;;5.40;3.78;;;10.40;99.90;;;;;;5072261;28;20449;-51
2023/05/04 00:32:07;;;;;;;8.65;2.67;;;10.40;99.90;;;;;;5072356;28;20078;-51
2023/05/04 00:34:33;;;;;;;8.50;4.32;;;10.30;99.90;;;;;;5072268;28;20031;-50
2023/05/04 00:36:59;;;;;;;6.68;2.78;;;10.20;99.90;;;;;;5072360;28;20021;-51
2023/05/04 00:39:25;;;;;;;3.90;2.70;;;10.20;99.90;;;;;;5072361;28;20099;-51
2023/05/04 00:41:51;;;;;;;4.32;2.80;;;10.20;99.90;;;;;;5071594;28;20159;-49
2023/05/04 00:44:16;;;;;;;7.50;2.90;;;10.20;99.90;;;;;;5053898;28;20104;-52
2023/05/04 00:46:42;;;;;;;11.23;4.00;;;10.10;99.90;;;;;;5071698;28;20021;-49
2023/05/04 00:49:08;;;;;;;6.05;2.80;;;10.10;99.90;;;;;;5072138;28;20020;-48
2023/05/04 00:51:33;;;;;;;7.07;3.67;;;10.10;99.90;;;;;;5054303;28;20024;-49
2023/05/04 00:53:59;;;;;;;5.30;2.75;;;10.10;99.90;;;;;;5071746;28;20024;-52
2023/05/04 00:56:27;;;;;;;5.30;3.10;;;10.10;99.90;;;;;;5071290;28;20027;-53
2023/05/04 00:58:56;;;;;;;6.82;3.05;;;10.00;99.90;;;;;;5072116;28;20025;-53
2023/05/04 01:01:22;;;;;;;5.97;2.50;;;10.00;99.90;;;;;;5071552;28;20020;-53
2023/05/04 01:03:52;;;;;;;6.13;3.17;;;10.00;99.90;;;;;;5075065;28;20017;-54
2023/05/04 01:06:33;;;;;;;4.53;2.78;;;9.90;99.90;;;;;;5075029;28;20099;-48
2023/05/04 01:09:15;;;;;;;3.03;2.80;;;9.90;99.90;;;;;;5075358;28;20014;-49
2023/05/04 01:11:56;;;;;;;3.35;2.70;;;9.80;99.90;;;;;;5074950;28;20031;-52
2023/05/04 01:14:22;;;;;;;5.55;2.63;;;9.90;99.90;;;;;;5075443;28;20103;-52
2023/05/04 01:16:51;;;;;;;4.82;2.95;;;9.80;99.90;;;;;;5075001;28;20060;-53
2023/05/04 01:19:17;;;;;;;3.85;2.65;;;9.80;99.90;;;;;;5057439;28;20031;-49
2023/05/04 01:21:42;;;;;;;4.05;2.90;;;10.70;99.90;;;;;;5074712;28;20476;-53
2023/05/04 01:24:08;;;;;;;6.13;2.90;;;9.80;99.90;;;;;;5075096;28;20025;-49
2023/05/04 01:26:38;;;;;;;5.82;2.88;;;9.80;99.90;;;;;;5074679;28;20070;-48
2023/05/04 01:29:18;;;;;;;5.47;3.00;;;9.80;99.90;;;;;;5074888;28;20032;-53
2023/05/04 01:31:45;;;;;;;14.75;3.63;;;9.80;99.90;;;;;;5074878;28;20046;-50
2023/05/04 01:34:12;;;;;;;6.47;3.00;;;9.90;99.90;;;;;;5074694;28;20067;-49
2023/05/04 01:36:38;;;;;;;7.45;3.30;;;9.90;99.90;;;;;;5075014;28;20025;-50
2023/05/04 01:39:04;;;;;;;9.15;3.00;;;9.80;99.90;;;;;;5075037;28;20028;-53
2023/05/04 01:41:29;;;;;;;4.07;3.17;;;9.80;99.90;;;;;;5056847;28;20032;-50
2023/05/04 01:43:56;;;;;;;3.63;2.53;;;9.90;99.90;;;;;;5075158;28;20123;-49
2023/05/04 01:46:21;;;;;;;9.02;3.33;;;9.80;99.90;;;;;;5074609;28;20032;-50
2023/05/04 01:48:47;;;;;;;5.78;3.13;;;9.80;99.90;;;;;;5056725;28;20012;-52
2023/05/04 01:51:12;;;;;;;5.47;3.00;;;9.80;99.90;;;;;;5074556;28;20104;-49
2023/05/04 01:53:38;;;;;;;7.38;3.03;;;9.80;99.90;;;;;;5074887;28;20312;-49
2023/05/04 01:56:04;;;;;;;9.77;3.08;;;9.70;99.90;;;;;;5074542;28;20086;-50
2023/05/04 01:58:30;;;;;;;11.73;3.35;;;9.70;99.90;;;;;;5074560;28;20036;-54
2023/05/04 02:00:58;;;;;;;5.80;3.10;;;9.70;99.90;;;;;;5074421;28;20103;-54
2023/05/04 02:03:24;;;;;;;6.32;3.35;;;9.70;99.90;;;;;;5074837;28;20051;-54
2023/05/04 02:05:49;;;;;;;11.60;3.33;;;9.60;99.90;;;;;;5074319;28;20028;-52
2023/05/04 02:08:15;;;;;;;5.07;3.00;;;9.60;99.90;;;;;;5074454;28;20115;-51
2023/05/04 02:10:40;;;;;;;10.15;3.42;;;9.50;99.90;;;;;;5074522;28;20480;-50
2023/05/04 02:13:06;;;;;;;5.43;3.05;;;9.50;99.90;;;;;;5073961;28;20025;-51
2023/05/04 02:15:31;;;;;;;5.38;3.33;;;9.40;99.90;;;;;;5074643;28;20476;-49
2023/05/04 02:17:57;;;;;;;8.65;3.30;;;9.40;99.90;;;;;;5074628;28;20073;-51
2023/05/04 02:20:22;;;;;;;9.25;3.50;;;9.40;99.90;;;;;;5074815;28;20549;-49
2023/05/04 02:22:48;;;;;;;6.00;3.20;;;9.30;99.90;;;;;;5075167;28;20040;-47
2023/05/04 02:25:13;;;;;;;7.85;3.38;;;9.30;99.90;;;;;;5074843;28;20323;-54
2023/05/04 02:27:39;;;;;;;8.90;3.35;;;9.30;99.90;;;;;;5056821;28;20033;-50
2023/05/04 02:30:05;;;;;;;4.47;2.95;;;9.30;99.90;;;;;;5074799;28;20044;-49
2023/05/04 02:32:31;;;;;;;3.92;3.28;;;9.30;99.90;;;;;;5074466;28;20036;-50
2023/05/04 02:34:56;;;;;;;5.78;3.40;;;9.30;99.90;;;;;;5074359;28;20112;-52
2023/05/04 02:37:22;;;;;;;4.45;3.38;;;9.20;99.90;;;;;;5074141;28;20051;-49
2023/05/04 02:39:47;;;;;;;7.10;3.65;;;9.20;99.90;;;;;;5074435;28;20033;-52
2023/05/04 02:42:13;;;;;;;3.83;3.17;;;9.20;99.90;;;;;;5056285;28;20028;-47
2023/05/04 02:44:39;;;;;;;3.55;3.00;;;9.20;99.90;;;;;;5074563;28;20474;-54
2023/05/04 02:47:05;;;;;;;11.13;3.08;;;9.20;99.90;;;;;;5056017;28;20502;-49
2023/05/04 02:49:30;;;;;;;7.18;3.67;;;9.20;99.90;;;;;;5074202;28;20052;-51
2023/05/04 02:51:56;;;;;;;9.40;3.70;;;9.20;99.90;;;;;;5073868;28;20024;-51
2023/05/04 02:54:21;;;;;;;6.13;2.90;;;9.20;99.90;;;;;;5074336;28;20492;-50
2023/05/04 02:56:47;;;;;;;9.07;3.00;;;9.20;99.90;;;;;;5055558;28;20035;-48
2023/05/04 02:59:12;;;;;;;5.88;2.58;;;9.20;99.90;;;;;;5055984;28;20051;-48
2023/05/04 03:01:38;;;;;;;8.00;3.55;;;9.20;99.90;;;;;;5073864;28;20086;-53
2023/05/04 03:04:04;;;;;;;5.10;4.13;;;9.20;99.90;;;;;;5073917;28;20394;-53
2023/05/04 03:06:30;;;;;;;3.95;3.63;;;9.10;99.90;;;;;;5073821;28;20016;-50
2023/05/04 03:08:55;;;;;;;6.55;3.80;;;9.10;99.90;;;;;;5073822;28;20126;-52
2023/05/04 03:11:21;;;;;;;4.97;3.22;;;9.10;99.90;;;;;;5073479;28;20376;-52
2023/05/04 03:13:46;;;;;;;8.05;4.82;;;9.10;99.90;;;;;;5073617;28;20035;-54
2023/05/04 03:16:12;;;;;;;5.25;3.15;;;9.00;99.90;;;;;;5073840;28;20047;-53
2023/05/04 03:18:37;;;;;;;6.10;3.20;;;9.00;99.90;;;;;;5056340;28;20016;-50
2023/05/04 03:21:03;;;;;;;6.72;4.00;;;9.10;99.90;;;;;;5039005;28;20024;-51
2023/05/04 03:23:28;;;;;;;4.47;3.20;;;9.00;99.90;;;;;;5073284;28;20035;-52
2023/05/04 03:25:54;;;;;;;8.10;3.58;;;9.00;99.90;;;;;;5073125;28;20024;-49
2023/05/04 03:28:19;;;;;;;7.18;4.35;;;9.00;99.90;;;;;;5073716;28;20028;-49
2023/05/04 03:30:45;;;;;;;9.32;3.55;;;8.90;99.90;;;;;;5073350;28;20020;-49
2023/05/04 03:33:10;;;;;;;4.57;3.92;;;8.90;99.90;;;;;;5074081;28;20035;-54
2023/05/04 03:35:36;;;;;;;8.88;3.75;;;8.90;99.90;;;;;;5074251;28;20032;-51
2023/05/04 03:38:01;;;;;;;9.05;4.05;;;8.90;99.90;;;;;;5039662;28;20411;-51
2023/05/04 03:40:27;;;;;;;8.23;4.57;;;8.90;99.90;;;;;;5074542;28;20399;-51
2023/05/04 03:42:53;;;;;;;6.07;3.45;;;8.90;99.90;;;;;;5074301;28;20078;-48
2023/05/04 03:45:18;;;;;;;6.22;3.85;;;8.90;99.90;;;;;;5074987;28;20507;-50
2023/05/04 03:47:44;;;;;;;5.93;4.07;;;8.90;99.90;;;;;;5074401;28;20103;-50
2023/05/04 03:50:10;;;;;;;9.45;3.72;;;8.90;99.90;;;;;;5074107;28;20070;-55
2023/05/04 03:52:35;;;;;;;6.78;3.95;;;8.90;99.90;;;;;;5074299;28;20032;-53
2023/05/04 03:55:01;;;;;;;7.00;4.00;;;8.90;99.90;;;;;;5074534;28;20032;-54
2023/05/04 03:57:26;;;;;;;4.40;4.00;;;8.90;99.90;;;;;;5073893;28;20067;-52
2023/05/04 03:59:52;;;;;;;12.63;4.00;;;8.80;99.90;;;;;;5073679;28;20036;-52
2023/05/04 04:02:17;;;;;;;6.80;4.20;;;8.80;99.90;;;;;;5073625;28;20369;-49
2023/05/04 04:04:43;;;;;;;9.48;4.10;;;8.80;99.90;;;;;;5073320;28;20071;-52
2023/05/04 04:07:11;;;;;;;5.00;4.47;;;8.80;99.90;;;;;;5074602;28;20028;-50
2023/05/04 04:09:37;;;;;;;6.47;3.60;;;8.80;99.90;;;;;;5074040;28;20021;-51
2023/05/04 04:12:02;;;;;;;8.93;4.00;;;8.80;99.90;;;;;;5056930;28;20571;-55
2023/05/04 04:14:28;;;;;;;6.43;4.13;;;8.80;99.90;;;;;;5074424;28;20030;-51
2023/05/04 04:16:53;;;;;;;7.30;4.40;;;8.90;99.90;;;;;;5073844;28;20068;-54
2023/05/04 04:19:19;;;;;;;5.93;4.40;;;8.90;99.90;;;;;;5074389;28;20050;-52
2023/05/04 04:21:44;;;;;;;7.28;4.30;;;8.90;99.90;;;;;;5074341;28;20024;-53
2023/05/04 04:24:10;;;;;;;9.05;4.32;;;8.90;99.90;;;;;;5074382;28;20115;-50
2023/05/04 04:26:35;;;;;;;5.28;4.60;;;8.90;99.90;;;;;;5074649;28;20029;-51
2023/05/04 04:29:01;;;;;;;7.95;4.35;;;8.90;99.90;;;;;;5056202;28;20016;-53
2023/05/04 04:31:26;;;;;;;11.40;5.10;;;8.90;99.90;;;;;;5073925;28;20492;-52
2023/05/04 04:33:52;;;;;;;7.00;4.20;;;9.00;99.90;;;;;;5074259;28;20553;-52
2023/05/04 04:36:18;;;;;;;8.18;4.32;;;9.00;99.90;;;;;;5074125;28;20051;-49
2023/05/04 04:38:44;;;;;;;8.07;4.32;;;9.00;99.90;;;;;;5077844;28;20029;-52
2023/05/04 04:41:09;;;;;;;6.93;4.80;;;9.00;99.90;;;;;;5077992;28;20020;-56
2023/05/04 04:43:35;;;;;;;6.82;4.30;;;9.10;99.90;;;;;;5078128;28;20549;-55
2023/05/04 04:46:01;;;;;;;5.82;4.47;;;9.10;99.90;;;;;;5077343;28;20782;-49
2023/05/04 04:48:26;;;;;;;6.57;4.25;;;9.20;99.90;;;;;;5077626;28;20362;-50
2023/05/04 04:50:52;;;;;;;6.10;4.53;;;9.20;99.90;;;;;;5076719;28;20483;-51
2023/05/04 04:53:18;;;;;;;6.70;4.28;;;9.30;99.90;;;;;;5077465;28;20028;-51
2023/05/04 04:55:44;;;;;;;6.45;4.25;;;9.40;99.90;;;;;;5077568;28;20024;-48
2023/05/04 04:58:09;;;;;;;4.47;4.07;;;9.60;99.90;;;;;;5089510;22;20055;-56
2023/05/04 05:00:35;;;;;;;6.93;4.10;;;9.70;99.90;;;;;;5041587;28;20028;-51
2023/05/04 05:03:02;;;;;;;7.07;4.60;;;9.70;99.90;;;;;;5059511;28;20036;-55
2023/05/04 05:05:27;;;;;;;5.07;4.20;;;9.80;99.90;;;;;;5042503;28;20472;-53
2023/05/04 05:07:53;;;;;;;5.72;4.38;;;9.80;99.90;;;;;;5043097;28;20083;-53
2023/05/04 05:10:20;;;;;;;10.30;4.78;;;9.80;99.90;;;;;;5042527;28;20108;-56
2023/05/04 05:12:45;;;;;;;6.90;4.22;;;9.80;99.90;;;;;;5042110;28;20024;-54
2023/05/04 05:15:11;;;;;;;10.65;4.55;;;9.80;99.90;;;;;;5059955;28;20060;-56
2023/05/04 05:17:37;;;;;;;5.63;3.83;;;9.90;99.90;;;;;;5060036;28;20049;-55
2023/05/04 05:20:09;;;;;;;6.63;4.28;;;9.90;99.90;;;;;;5059517;28;20028;-53
2023/05/04 05:22:35;;;;;;;4.97;4.43;;;10.00;99.90;;;;;;5059290;28;20033;-50
2023/05/04 05:25:00;;;;;;;8.60;4.95;;;10.10;99.90;;;;;;5058988;28;20028;-51
2023/05/04 05:27:26;;;;;;;7.05;4.50;;;10.20;99.90;;;;;;5058119;28;20029;-50
2023/05/04 05:29:52;;;;;;;5.57;3.85;;;10.40;99.90;;;;;;5057465;28;20025;-52
2023/05/04 05:32:17;;;;;;;11.32;4.40;;;10.60;99.90;;;;;;5057829;28;20037;-54
2023/05/04 05:34:43;;;;;;;5.40;4.35;;;10.70;99.90;;;;;;5041704;28;20036;-53
2023/05/04 05:37:08;;;;;;;7.95;4.60;;;10.80;99.90;;;;;;5060529;28;20020;-57
2023/05/04 05:39:35;;;;;;;6.15;4.50;;;10.70;99.90;;;;;;5060164;28;20032;-51
2023/05/04 05:42:02;;;;;;;9.82;4.65;;;10.80;99.90;;;;;;5060132;28;20117;-52
2023/05/04 05:44:28;;;;;;;6.93;4.10;;;11.00;99.90;;;;;;5042254;28;20071;-58
2023/05/04 05:46:54;;;;;;;6.25;3.88;;;11.20;99.90;;;;;;5060354;28;20504;-54
2023/05/04 05:49:20;;;;;;;11.07;5.35;;;11.10;99.90;;;;;;5059996;28;20047;-58
2023/05/04 05:51:45;;;;;;;9.43;4.97;;;11.10;99.90;;;;;;5059918;28;20025;-51
2023/05/04 05:54:11;;;;;;;14.90;5.22;;;11.20;99.90;;;;;;5060875;28;20405;-53
2023/05/04 05:56:36;;;;;;;5.18;4.30;;;11.50;99.90;;;;;;5060381;28;20028;-52
2023/05/04 05:59:03;;;;;;;9.13;4.32;;;11.70;99.90;;;;;;5041643;28;20083;-56
2023/05/04 06:01:28;;;;;;;7.38;4.05;;;11.80;99.90;;;;;;5060402;28;20040;-55
2023/05/04 06:03:54;;;;;;;6.47;4.13;;;12.30;99.90;;;;;;5060229;28;20020;-52
2023/05/04 06:06:19;;;;;;;6.70;4.35;;;12.80;99.90;;;;;;5060688;28;20127;-56
2023/05/04 06:08:45;;;;;;;10.75;4.10;;;13.40;99.90;;;;;;5060813;28;20492;-54
2023/05/04 06:11:11;;;;;;;7.65;3.90;;;13.60;99.90;;;;;;5043046;28;20484;-56
2023/05/04 06:13:36;;;;;;;6.43;4.05;;;14.10;99.90;;;;;;5059980;28;20116;-52
2023/05/04 06:16:02;;;;;;;6.35;4.03;;;14.20;99.30;;;;;;5055983;28;20025;-53
2023/05/04 06:18:27;;;;;;;6.30;4.30;;;14.30;99.30;;;;;;5053858;28;20033;-52
2023/05/04 06:21:00;;;;;;;7.25;3.97;;;14.30;98.80;;;;;;5035493;28;20032;-54
2023/05/04 06:23:30;;;;;;;5.22;4.03;;;14.20;98.90;;;;;;5053346;28;20207;-55
2023/05/04 06:25:55;;;;;;;7.20;4.38;;;13.90;99.20;;;;;;5053767;28;20508;-55
2023/05/04 06:28:21;;;;;;;7.32;3.83;;;13.70;99.80;;;;;;5055585;28;20021;-50
2023/05/04 06:30:47;;;;;;;8.35;3.95;;;14.30;99.20;;;;;;5058566;28;20075;-53
2023/05/04 06:33:13;;;;;;;5.45;4.10;;;15.20;98.10;;;;;;5040350;28;20029;-52
2023/05/04 06:35:38;;;;;;;4.72;3.90;;;15.90;96.80;;;;;;5059533;28;20036;-54
2023/05/04 06:38:04;;;;;;;4.63;4.15;;;16.10;96.10;;;;;;5058848;28;20025;-56
2023/05/04 06:40:29;;;;;;;8.13;4.20;;;15.70;96.30;;;;;;5060319;28;20668;-57
2023/05/04 06:42:55;;;;;;;8.88;4.20;;;15.30;96.70;;;;;;5042532;28;20040;-55
2023/05/04 06:45:20;;;;;;;8.18;5.18;;;14.80;97.20;;;;;;5060600;28;20029;-56
2023/05/04 06:47:46;;;;;;;10.38;3.97;;;14.60;98.10;;;;;;5061127;28;20349;-55
2023/05/04 06:50:13;;;;;;;6.30;4.63;;;14.70;98.00;;;;;;5060167;28;20041;-54
2023/05/04 06:52:39;;;;;;;5.75;4.20;;;14.60;98.30;;;;;;5060259;28;20104;-56
2023/05/04 06:55:06;;;;;;;7.15;4.38;;;14.50;98.60;;;;;;5059789;28;20441;-53
2023/05/04 06:57:32;;;;;;;13.27;4.50;;;14.30;98.90;;;;;;5042183;28;20036;-54
2023/05/04 06:59:58;;;;;;;14.70;4.30;;;14.10;99.40;;;;;;5059034;28;20492;-53
2023/05/04 07:02:23;;;;;;;9.75;4.57;;;14.10;99.60;;;;;;5059554;28;20068;-54
2023/05/04 07:04:51;;;;;;;5.95;4.15;;;14.20;99.30;;;;;;5059776;28;20017;-52
2023/05/04 07:07:17;;;;;;;6.47;4.47;;;14.40;99.30;;;;;;5059270;28;20504;-54
2023/05/04 07:09:42;;;;;;;6.80;3.90;;;15.00;98.90;;;;;;5059650;28;20033;-53
2023/05/04 07:12:08;;;;;;;12.68;4.07;;;15.90;97.00;;;;;;5059653;28;20020;-50
2023/05/04 07:14:34;;;;;;;5.05;3.97;;;16.70;95.90;;;;;;5041742;28;20025;-55
2023/05/04 07:17:00;;;;;;;8.88;3.90;;;17.10;95.20;;;;;;5059542;28;20128;-54
2023/05/04 07:19:26;;;;;;;9.32;4.40;;;17.50;94.30;;;;;;5059006;28;20020;-58
2023/05/04 07:21:51;;;;;;;9.02;3.60;;;17.20;93.90;;;;;;5025264;28;20025;-55
2023/05/04 07:24:17;;;;;;;7.53;4.20;;;17.30;93.90;;;;;;5040983;28;20028;-52
2023/05/04 07:26:42;;;;;;;4.15;3.75;;;17.40;94.00;;;;;;5059048;28;20060;-56
2023/05/04 07:29:08;;;;;;;9.48;4.47;;;17.70;93.50;;;;;;5059452;28;20032;-58
2023/05/04 07:31:35;;;;;;;10.75;4.00;;;18.00;93.20;;;;;;5058795;28;20017;-57
2023/05/04 07:34:00;;;;;;;4.30;3.67;;;18.90;92.40;;;;;;5059197;28;20052;-55
2023/05/04 07:36:26;;;;;;;5.20;3.95;;;19.20;91.40;;;;;;5058612;28;20021;-56
2023/05/04 07:38:52;;;;;;;7.43;3.60;;;19.40;90.80;;;;;;5059055;28;20028;-58
2023/05/04 07:41:18;;;;;;;8.60;4.18;;;19.10;91.40;;;;;;5040437;28;20067;-54
2023/05/04 07:43:44;;;;;;;9.57;3.33;;;19.80;91.00;;;;;;5058975;28;20032;-57
2023/05/04 07:46:10;;;;;;;4.90;3.40;;;19.90;90.10;;;;;;5058386;28;20417;-52
2023/05/04 07:48:36;;;;;;;8.80;3.67;;;20.50;89.70;;;;;;5040739;28;20091;-54
2023/05/04 07:51:02;;;;;;;5.22;3.75;;;21.10;87.50;;;;;;5041383;28;20043;-52
2023/05/04 07:53:27;;;;;;;5.45;3.40;;;21.10;86.60;;;;;;5041241;28;20491;-55
2023/05/04 07:55:53;;;;;;;8.77;4.20;;;21.20;86.40;;;;;;5059130;28;20077;-58
2023/05/04 07:58:19;;;;;;;7.97;3.85;;;21.00;85.10;;;;;;5054798;28;20029;-55
2023/05/04 08:00:44;;;;;;;8.02;4.03;;;20.60;86.60;;;;;;5057295;28;20400;-57
2023/05/04 08:03:10;;;;;;;10.00;4.15;;;21.00;86.00;;;;;;5058764;28;20025;-54
2023/05/04 08:05:36;;;;;;;5.82;4.28;;;21.50;86.70;;;;;;5060450;28;20021;-53
2023/05/04 08:08:01;;;;;;;4.90;3.63;;;21.10;86.10;;;;;;5057779;28;20090;-55
2023/05/04 08:10:28;;;;;;;6.82;4.78;;;21.00;85.60;;;;;;5040509;28;20051;-58
2023/05/04 08:12:53;;;;;;;8.52;4.15;;;21.00;86.60;;;;;;5056442;28;20021;-57
2023/05/04 08:15:19;;;;;;;5.15;3.60;;;21.00;86.10;;;;;;5058752;28;20509;-57
2023/05/04 08:17:44;;;;;;;6.72;3.90;;;21.10;87.20;;;;;;5060295;28;20040;-54
2023/05/04 08:20:10;;;;;;;7.22;4.57;;;21.30;86.60;;;;;;5061386;28;20029;-57
2023/05/04 08:22:36;;;;;;;8.82;4.30;;;21.50;86.50;;;;;;5061247;28;20029;-57
2023/05/04 08:25:01;;;;;;;6.10;4.38;;;21.30;85.80;;;;;;5060745;28;20421;-56
2023/05/04 08:27:27;;;;;;;11.50;4.60;;;21.50;85.50;;;;;;5060101;28;20051;-57
2023/05/04 08:29:52;;;;;;;7.72;4.65;;;21.50;85.60;;;;;;5058391;28;20021;-54
2023/05/04 08:32:18;;;;;;;10.95;5.38;;;21.50;86.00;;;;;;5046248;28;20457;-54
2023/05/04 08:34:43;;;;;;;8.40;4.40;;;21.00;86.40;;;;;;5017537;28;20025;-52
2023/05/04 08:37:09;;;;;;;9.75;5.03;;;20.80;87.80;;;;;;5052668;28;20484;-53
2023/05/04 08:39:34;;;;;;;10.25;5.82;;;20.40;88.20;;;;;;5058470;28;20036;-51
2023/05/04 08:42:01;;;;;;;7.95;4.80;;;20.00;89.20;;;;;;5053133;28;20029;-51
2023/05/04 08:44:28;;;;;;;7.07;5.05;;;20.00;90.00;;;;;;5041076;28;20021;-53
2023/05/04 08:46:55;;;;;;;7.65;5.35;;;19.80;90.40;;;;;;5058686;28;20029;-54
2023/05/04 08:49:22;;;;;;;6.93;5.15;;;19.80;90.40;;;;;;5038906;28;20017;-52
2023/05/04 08:51:49;;;;;;;9.57;5.63;;;19.90;90.70;;;;;;5037934;28;20040;-54
2023/05/04 08:54:15;;;;;;;7.78;5.43;;;19.90;90.50;;;;;;5039345;28;20079;-50
2023/05/04 08:56:41;;;;;;;5.95;5.40;;;19.80;90.60;;;;;;5038531;28;20036;-53
2023/05/04 08:59:10;;;;;;;10.02;5.65;;;19.80;90.40;;;;;;5038846;28;20017;-54
2023/05/04 09:01:37;;;;;;;8.15;6.72;;;19.90;90.80;;;;;;5038241;28;20021;-51
2023/05/04 09:04:03;;;;;;;8.27;5.30;;;19.90;90.40;;;;;;5036141;28;20036;-51
2023/05/04 09:06:30;;;;;;;7.30;5.20;;;20.70;91.00;;;;;;5019018;28;20025;-51
2023/05/04 09:08:56;;;;;;;8.90;5.90;;;20.00;90.40;;;;;;5020143;28;20021;-53
2023/05/04 09:11:22;;;;;;;10.38;4.95;;;19.70;91.00;;;;;;5038330;28;20028;-54
2023/05/04 09:13:47;;;;;;;10.35;5.10;;;19.90;90.80;;;;;;5037737;28;20412;-52
2023/05/04 09:16:15;;;;;;;9.57;5.85;;;19.80;91.10;;;;;;5037736;28;20041;-52
2023/05/04 09:18:42;;;;;;;8.35;4.75;;;19.70;91.10;;;;;;5058513;28;20116;-57
2023/05/04 09:21:08;;;;;;;10.98;5.07;;;20.00;91.60;;;;;;5055692;28;20590;-54
2023/05/04 09:23:50;;;;;;;9.15;4.97;;;20.20;90.70;;;;;;5057935;28;20025;-52
2023/05/04 09:26:26;;;;;;;40.22;25.25;;;20.00;90.20;;;;;;5043605;28;20036;-49
2023/05/04 09:28:52;;;;;;;12.70;8.15;;;19.90;91.00;;;;;;5062093;28;20036;-50
2023/05/04 09:31:17;;;;;;;6.60;5.07;;;20.00;90.90;;;;;;5061519;28;20392;-52
2023/05/04 09:33:43;;;;;;;17.23;6.00;;;20.20;90.60;;;;;;5043203;28;20059;-50
2023/05/04 09:36:17;;;;;;;7.30;4.70;;;20.20;90.30;;;;;;5060411;28;20488;-53
2023/05/04 09:38:43;;;;;;;7.20;4.30;;;20.30;91.10;;;;;;5044878;28;20056;-55
2023/05/04 09:41:09;;;;;;;9.43;4.95;;;20.50;90.00;;;;;;5062629;28;20033;-48
2023/05/04 09:43:42;;;;;;;5.97;4.43;;;20.60;88.90;;;;;;5060306;28;20505;-51
2023/05/04 09:46:18;;;;;;;6.78;5.30;;;20.70;88.60;;;;;;5062539;28;20025;-51
2023/05/04 09:48:57;;;;;;;9.20;5.13;;;20.50;88.40;;;;;;5061106;28;20037;-52
2023/05/04 09:51:26;;;;;;;9.30;5.55;;;20.20;89.20;;;;;;5045054;28;20021;-53
2023/05/04 09:53:53;;;;;;;7.60;5.15;;;20.10;89.40;;;;;;5046190;28;20043;-55
2023/05/04 09:56:36;;;;;;;6.32;4.45;;;20.10;89.90;;;;;;5062672;28;20021;-48
2023/05/04 09:59:03;;;;;;;9.90;4.32;;;20.00;89.40;;;;;;5062274;28;20094;-54
2023/05/04 10:01:29;;;;;;;7.75;4.80;;;19.70;90.00;;;;;;5063732;28;20048;-50
2023/05/04 10:03:55;;;;;;;5.43;4.93;;;19.70;90.10;;;;;;5046375;28;20465;-55
2023/05/04 10:06:22;;;;;;;5.07;4.38;;;19.80;90.20;;;;;;5063828;28;20025;-58
2023/05/04 10:08:50;;;;;;;7.78;4.80;;;19.90;90.70;;;;;;5046092;28;20028;-55
2023/05/04 10:11:18;;;;;;;7.57;4.57;;;19.90;90.20;;;;;;5063149;28;20033;-58
2023/05/04 10:13:56;;;;;;;6.95;4.35;;;19.90;90.40;;;;;;5063054;28;20088;-54
2023/05/04 10:16:59;;;;;;;4.88;4.47;;;19.90;90.50;;;;;;5063483;28;20017;-54
2023/05/04 10:19:57;;;;;;;12.23;6.15;;;20.10;90.40;;;;;;5045827;28;20120;-55
2023/05/04 10:22:50;;;;;;;8.95;5.70;;;20.00;90.30;;;;;;5063155;28;20112;-55
2023/05/04 10:25:34;;;;;;;6.93;4.75;;;19.90;90.20;;;;;;5045147;28;20051;-56
2023/05/04 10:28:06;;;;;;;11.10;5.28;;;19.90;90.10;;;;;;5063288;28;20455;-54
2023/05/04 10:30:32;;;;;;;8.98;4.50;;;19.80;90.40;;;;;;5063485;28;20021;-59
2023/05/04 10:32:58;;;;;;;8.00;4.63;;;19.90;90.60;;;;;;5063958;28;20109;-53
2023/05/04 10:35:24;;;;;;;6.30;4.38;;;19.90;90.50;;;;;;5063140;28;20018;-56
2023/05/04 10:37:53;;;;;;;7.65;4.43;;;20.00;90.90;;;;;;5063369;28;20029;-54
2023/05/04 10:40:39;;;;;;;6.30;4.30;;;20.00;90.70;;;;;;5046304;28;20025;-56
2023/05/04 10:43:10;;;;;;;5.47;3.92;;;20.00;90.40;;;;;;5062967;28;20048;-53
2023/05/04 10:45:39;;;;;;;9.50;3.92;;;20.10;90.80;;;;;;5045324;28;20033;-56
2023/05/04 10:48:07;;;;;;;5.65;4.53;;;20.30;90.50;;;;;;5063841;28;20045;-58
2023/05/04 10:50:47;;;;;;;4.75;4.35;;;20.40;90.30;;;;;;5063972;28;20040;-55
2023/05/04 10:53:15;;;;;;;5.55;4.57;;;20.30;90.00;;;;;;5063180;28;20028;-55
2023/05/04 10:55:45;;;;;;;5.28;4.15;;;20.20;90.20;;;;;;5063929;28;20021;-49
2023/05/04 10:58:15;;;;;;;94.88;62.17;;;20.20;90.60;;;;;;5062967;28;20040;-56
2023/05/04 11:00:43;;;;;;;21.25;16.45;;;20.20;90.90;;;;;;5044477;28;20484;-55
2023/05/04 11:03:10;;;;;;;18.17;12.45;;;20.20;90.20;;;;;;5063331;28;20044;-50
2023/05/04 11:05:44;;;;;;;5.30;4.28;;;20.20;90.40;;;;;;5063201;28;20021;-54
2023/05/04 11:08:16;;;;;;;11.52;4.20;;;20.30;90.40;;;;;;5045315;28;20032;-56
2023/05/04 11:10:42;;;;;;;6.53;4.25;;;20.40;90.40;;;;;;5044646;28;20021;-53
2023/05/04 11:13:14;;;;;;;4.68;4.03;;;20.40;90.40;;;;;;5064135;28;20041;-51
2023/05/04 11:15:59;;;;;;;8.90;5.43;;;20.50;90.80;;;;;;5045276;28;20055;-56
2023/05/04 11:18:29;;;;;;;5.00;3.92;;;20.50;90.10;;;;;;5063351;28;20073;-54
2023/05/04 11:20:55;;;;;;;7.93;4.25;;;20.50;90.40;;;;;;5062871;28;20047;-53
2023/05/04 11:23:22;;;;;;;5.72;4.47;;;20.50;90.10;;;;;;5045005;28;20048;-55
2023/05/04 11:25:48;;;;;;;6.97;4.97;;;20.40;90.40;;;;;;5062722;28;20480;-56
2023/05/04 11:28:13;;;;;;;5.28;4.13;;;20.40;90.20;;;;;;5044828;28;20052;-56
2023/05/04 11:30:41;;;;;;;4.80;4.03;;;20.40;90.20;;;;;;5058064;28;20029;-55
2023/05/04 11:35:33;;;;;;;5.45;4.22;;;20.60;90.80;;;;;;5068960;22;20052;-50
2023/05/04 11:37:58;;;;;;;4.80;4.30;;;20.60;90.00;;;;;;5051351;28;20017;-46
2023/05/04 11:40:26;;;;;;;5.28;3.90;;;20.60;89.90;;;;;;5051816;28;20423;-47
2023/05/04 11:42:53;;;;;;;7.65;4.32;;;20.50;90.30;;;;;;5051500;28;20132;-47
2023/05/04 11:45:22;;;;;;;6.30;4.30;;;20.50;90.10;;;;;;5051647;28;20419;-46
2023/05/04 11:47:48;;;;;;;8.35;4.28;;;20.40;90.20;;;;;;5051383;28;20428;-50
2023/05/04 11:50:16;;;;;;;6.80;4.45;;;20.40;90.40;;;;;;5051312;28;20540;-48
2023/05/04 11:52:42;;;;;;;6.15;4.43;;;20.50;90.20;;;;;;5051628;28;20039;-51
2023/05/04 11:55:23;;;;;;;3.63;3.33;;;20.60;90.50;;;;;;5051512;28;20074;-49
2023/05/04 11:58:02;;;;;;;4.85;3.80;;;20.70;90.40;;;;;;5051412;28;20032;-46
2023/05/04 12:00:38;;;;;;;5.78;4.18;;;20.80;90.20;;;;;;5051806;28;20369;-49
2023/05/04 12:03:25;;;;;;;11.85;4.20;;;21.00;90.20;;;;;;5051688;28;20578;-47
2023/05/04 12:05:53;;;;;;;10.25;4.70;;;21.00;90.20;;;;;;5051255;28;20029;-51
2023/05/04 12:08:30;;;;;;;8.85;3.85;;;21.00;88.50;;;;;;5051788;28;20021;-48
2023/05/04 12:11:27;;;;;;;5.15;4.25;;;21.00;89.40;;;;;;5051366;28;20435;-50
2023/05/04 12:14:10;;;;;;;4.18;3.45;;;21.00;89.60;;;;;;5051369;28;20029;-46
2023/05/04 12:16:36;;;;;;;9.32;4.53;;;21.10;90.40;;;;;;5051330;28;20027;-49
2023/05/04 12:19:07;;;;;;;4.32;3.67;;;21.00;89.20;;;;;;5051409;28;20029;-50
2023/05/04 12:21:34;;;;;;;4.70;4.18;;;21.10;90.00;;;;;;5052267;28;20052;-49
2023/05/04 12:24:01;;;;;;;7.40;4.15;;;21.20;90.00;;;;;;5052029;28;20021;-48
2023/05/04 12:26:26;;;;;;;4.88;3.58;;;21.20;88.80;;;;;;5051932;28;20013;-48
2023/05/04 12:28:52;;;;;;;8.75;3.80;;;21.30;90.20;;;;;;5051973;28;20104;-46
2023/05/04 12:31:18;;;;;;;6.90;3.65;;;21.40;89.00;;;;;;5051922;28;20053;-47
2023/05/04 12:33:44;;;;;;;5.55;4.07;;;21.30;88.20;;;;;;5052172;28;20119;-48
2023/05/04 12:36:10;;;;;;;4.50;3.53;;;21.30;88.80;;;;;;5033135;28;20025;-47
2023/05/04 12:38:39;;;;;;;6.85;3.92;;;21.40;88.90;;;;;;5051777;28;20029;-50
2023/05/04 12:41:09;;;;;;;6.28;3.35;;;21.40;87.60;;;;;;5051616;28;20368;-50
2023/05/04 12:43:35;;;;;;;3.65;3.35;;;21.50;87.50;;;;;;5051389;28;20396;-49
2023/05/04 12:46:01;;;;;;;5.13;4.68;;;21.60;86.70;;;;;;5051107;28;20021;-49
2023/05/04 12:48:27;;;;;;;4.75;3.35;;;21.70;86.80;;;;;;5033125;28;20028;-51
2023/05/04 12:50:53;;;;;;;3.92;3.20;;;21.70;86.50;;;;;;5050666;28;20104;-48